Time;durP1;ratioP1;P1;durP2;ratioP2;P2;SDS_P1;SDS_P2;PMS_P1;PMS_P2;Temp;Humidity;BMP_temperature;BMP_pressure;BME280_temperature;BME280_humidity;BME280_pressure;Samples;Min_cycle;Max_cycle;Signal;HPM_P1;HPM_P2
2022/05/04 07:10:02;;;;;;;9.60;4.20;;;;;;;15.81;96.72;101118.22;5066143;28;20843;-83
2022/05/04 17:24:32;;;;;;;11.87;2.70;;;;;;;24.94;50.20;101268.97;4741081;29;268958;-85
2022/05/04 17:26:58;;;;;;;6.87;2.43;;;;;;;24.86;50.77;101267.56;4753008;30;20456;-84
2022/05/04 17:29:26;;;;;;;8.70;2.80;;;;;;;24.70;50.58;101263.88;4798218;29;20435;-84
2022/05/04 17:37:27;;;;;;;6.20;2.17;;;;;;;24.10;51.42;101284.84;4783305;29;20451;-84
2022/05/04 17:39:56;;;;;;;8.73;2.13;;;;;;;24.00;50.47;101290.38;5206122;22;22807;-90
2022/05/04 17:42:26;;;;;;;5.00;2.77;;;;;;;23.88;51.05;101286.09;5072077;28;20511;-89
2022/05/04 17:44:54;;;;;;;9.03;2.50;;;;;;;23.68;51.43;101270.88;5072446;28;20445;-88
2022/05/04 17:47:25;;;;;;;9.57;2.33;;;;;;;23.70;51.59;101284.56;5055187;28;20445;-88
2022/05/04 17:49:53;;;;;;;7.17;2.70;;;;;;;23.60;51.54;101287.28;5071225;28;20485;-90
2022/05/04 17:52:25;;;;;;;6.80;2.37;;;;;;;23.57;52.01;101279.44;5039443;28;20472;-89
2022/05/04 17:54:53;;;;;;;5.70;2.53;;;;;;;23.65;52.01;101278.97;5036047;28;20442;-91
2022/05/04 17:57:23;;;;;;;9.60;3.00;;;;;;;23.61;52.08;101288.97;5051281;28;20813;-89
2022/05/04 17:59:51;;;;;;;6.47;2.57;;;;;;;23.48;51.86;101281.84;5072364;28;20775;-89
2022/05/04 18:05:07;;;;;;;5.67;2.80;;;;;;;23.49;52.93;101271.53;5074592;28;20486;-89
2022/05/04 18:07:35;;;;;;;4.20;2.10;;;;;;;23.58;53.15;101292.31;5039311;28;20441;-89
2022/05/04 18:10:03;;;;;;;6.60;2.53;;;;;;;23.36;52.49;101273.66;5055386;28;20548;-90
2022/05/04 18:12:31;;;;;;;7.50;2.73;;;;;;;23.11;53.20;101286.53;5031661;28;20478;-89
2022/05/04 18:14:59;;;;;;;5.37;2.30;;;;;;;22.91;53.45;101282.44;5040243;28;20449;-89
2022/05/04 18:17:26;;;;;;;5.80;2.60;;;;;;;22.88;54.04;101298.88;5051221;28;20472;-89
2022/05/04 18:19:56;;;;;;;9.50;2.63;;;;;;;22.72;54.15;101287.47;5055335;28;20498;-89
2022/05/04 18:22:24;;;;;;;6.37;2.80;;;;;;;22.59;54.24;101293.47;5055865;28;20953;-89
2022/05/04 18:24:53;;;;;;;9.00;3.07;;;;;;;22.50;54.26;101295.03;5043722;28;20448;-92
2022/05/04 18:27:24;;;;;;;11.00;2.87;;;;;;;22.37;54.83;101287.06;5027278;28;20441;-91
2022/05/04 18:29:52;;;;;;;6.87;2.63;;;;;;;22.21;55.46;101282.41;5026668;28;20462;-91
2022/05/04 18:32:20;;;;;;;7.60;2.40;;;;;;;21.97;55.81;101293.72;5042247;28;20469;-91
2022/05/04 18:35:12;;;;;;;6.50;2.63;;;;;;;21.92;55.94;101304.81;5043015;28;20469;-91
2022/05/04 18:37:40;;;;;;;6.43;2.77;;;;;;;21.76;56.24;101313.97;5044491;28;20965;-91
2022/05/04 18:41:09;;;;;;;7.47;2.80;;;;;;;21.68;56.88;101323.63;5043095;28;21144;-92
2022/05/04 18:45:03;;;;;;;;;;;;;;;;;;;;;
2022/05/04 18:48:19;;;;;;;5.83;2.40;;;;;;;21.36;58.11;101328.91;5089941;28;20433;-93
2022/05/04 18:51:13;;;;;;;;;;;;;;;;;;;;;
2022/05/04 18:54:04;;;;;;;8.97;3.10;;;;;;;21.11;58.66;101311.75;5053405;28;20477;-92
2022/05/04 18:56:40;;;;;;;5.90;3.10;;;;;;;21.03;58.68;101303.78;5052376;28;20445;-90
2022/05/04 18:59:11;;;;;;;5.03;2.60;;;;;;;21.07;59.65;101326.38;5013664;28;20439;-91
2022/05/04 19:01:59;;;;;;;11.70;3.00;;;;;;;21.09;59.65;101335.31;5028550;28;20457;-91
2022/05/04 19:04:28;;;;;;;9.30;2.80;;;;;;;20.92;59.93;101325.00;5068036;28;20981;-90
2022/05/04 19:06:57;;;;;;;8.00;3.07;;;;;;;20.83;60.08;101336.75;5039872;28;20446;-91
2022/05/04 19:09:43;;;;;;;7.40;2.40;;;;;;;20.83;60.91;101351.47;5574112;22;20498;-86
2022/05/04 19:12:12;;;;;;;5.30;2.60;;;;;;;20.76;61.22;101355.50;5028499;28;20492;-88
2022/05/04 19:14:40;;;;;;;13.27;3.30;;;;;;;20.67;62.06;101350.34;4996333;28;20447;-89
2022/05/04 19:17:07;;;;;;;7.73;2.60;;;;;;;20.63;62.35;101363.03;5013303;28;20436;-88
2022/05/04 19:19:58;;;;;;;11.00;3.43;;;;;;;20.52;62.57;101357.50;4994475;28;20487;-88
2022/05/04 19:22:26;;;;;;;9.73;3.50;;;;;;;20.46;63.42;101359.31;4968693;28;20479;-88
2022/05/04 19:24:55;;;;;;;8.47;3.07;;;;;;;20.34;63.14;101364.03;5015798;28;20455;-89
2022/05/04 19:27:25;;;;;;;6.13;2.67;;;;;;;20.37;63.79;101377.47;5015230;28;20451;-89
2022/05/04 19:29:54;;;;;;;7.33;2.70;;;;;;;20.27;64.06;101369.69;5025498;28;20523;-88
2022/05/04 19:32:23;;;;;;;9.67;3.20;;;;;;;20.21;64.44;101378.97;5017024;28;20482;-89
2022/05/04 19:34:51;;;;;;;5.20;2.70;;;;;;;20.18;64.70;101389.75;5016504;28;20932;-88
2022/05/04 19:37:21;;;;;;;11.23;3.00;;;;;;;20.06;65.06;101392.50;5000826;28;20451;-88
2022/05/04 19:39:49;;;;;;;7.63;2.90;;;;;;;20.01;66.02;101401.53;5033446;28;20486;-88
2022/05/04 19:42:17;;;;;;;11.07;2.77;;;;;;;19.94;66.22;101389.72;5004202;28;20494;-88
2022/05/04 19:44:45;;;;;;;9.23;3.17;;;;;;;19.87;66.42;101397.31;4997646;28;20440;-88
2022/05/04 19:47:19;;;;;;;5.47;2.43;;;;;;;19.90;66.51;101394.06;5013536;28;20440;-88
2022/05/04 19:49:47;;;;;;;7.03;3.30;;;;;;;19.78;66.44;101393.22;5013471;28;20455;-88
2022/05/04 19:52:18;;;;;;;9.33;3.33;;;;;;;19.77;66.77;101413.72;4997790;28;20476;-88
2022/05/04 19:58:34;;;;;;;7.53;3.00;;;;;;;19.61;67.61;101411.63;5014580;28;20443;-88
2022/05/04 20:01:05;;;;;;;10.73;3.10;;;;;;;19.54;67.54;101417.28;5013045;28;20887;-87
2022/05/04 20:03:33;;;;;;;11.30;3.50;;;;;;;19.52;67.63;101418.59;4996738;28;21028;-87
2022/05/04 20:06:00;;;;;;;8.63;3.43;;;;;;;19.52;67.45;101430.53;4996949;28;20441;-87
2022/05/04 20:08:29;;;;;;;13.23;3.53;;;;;;;19.53;67.97;101453.56;4996505;28;20448;-87
2022/05/04 20:10:59;;;;;;;8.37;3.33;;;;;;;19.44;67.89;101430.81;4996670;28;20514;-87
2022/05/04 20:13:27;;;;;;;10.13;3.27;;;;;;;19.48;67.80;101448.69;5012592;28;20885;-88
2022/05/04 20:15:54;;;;;;;10.50;2.93;;;;;;;19.42;68.16;101440.47;4996351;28;20440;-88
2022/05/04 20:18:23;;;;;;;4.60;2.70;;;;;;;19.48;67.72;101453.38;4996293;28;20507;-88
2022/05/04 20:20:51;;;;;;;11.33;3.57;;;;;;;19.44;67.43;101449.38;5013158;28;20459;-87
2022/05/04 20:23:36;;;;;;;8.67;3.00;;;;;;;19.44;67.30;101454.91;5012906;28;20535;-87
2022/05/04 20:26:04;;;;;;;6.67;3.43;;;;;;;19.42;67.17;101454.34;5012824;28;20512;-88
2022/05/04 20:28:34;;;;;;;8.50;3.00;;;;;;;19.44;66.47;101466.84;4996631;28;20809;-87
2022/05/04 20:31:04;;;;;;;16.60;2.83;;;;;;;19.41;66.36;101460.97;5012639;28;20436;-88
2022/05/04 20:33:31;;;;;;;6.53;2.50;;;;;;;19.46;66.85;101469.41;5012284;28;20519;-87
2022/05/04 20:35:59;;;;;;;8.30;3.00;;;;;;;19.46;66.58;101483.25;4996423;28;20487;-87
2022/05/04 20:41:13;;;;;;;10.40;2.87;;;;;;;19.45;66.80;101476.03;5012903;28;20436;-87
2022/05/04 20:43:42;;;;;;;8.80;3.50;;;;;;;19.43;66.81;101472.66;4981039;28;20445;-87
2022/05/04 20:46:11;;;;;;;9.30;3.63;;;;;;;19.30;66.72;101459.81;4976195;28;20464;-88
2022/05/04 20:48:40;;;;;;;6.57;3.20;;;;;;;19.37;66.67;101482.75;5012366;28;20432;-87
2022/05/04 20:53:55;;;;;;;8.30;3.10;;;;;;;19.30;66.65;101470.91;5006485;28;20493;-86
2022/05/04 20:56:22;;;;;;;8.20;3.00;;;;;;;19.36;66.19;101486.59;4960566;28;20441;-87
2022/05/04 20:58:51;;;;;;;11.67;3.13;;;;;;;19.40;66.04;101478.69;4980389;28;20440;-88
2022/05/04 21:01:21;;;;;;;14.47;4.03;;;;;;;19.36;66.09;101485.75;4980430;28;20456;-87
2022/05/04 21:03:49;;;;;;;13.67;3.90;;;;;;;19.32;66.11;101480.69;5011737;28;20460;-88
2022/05/04 21:06:17;;;;;;;11.53;3.23;;;;;;;19.35;66.43;101484.91;4979782;28;20437;-88
2022/05/04 21:08:45;;;;;;;7.43;2.80;;;;;;;19.32;66.38;101497.31;4980022;28;20440;-87
2022/05/04 21:11:16;;;;;;;7.60;3.10;;;;;;;19.25;66.42;101491.00;4996573;28;20443;-87
2022/05/04 21:13:44;;;;;;;14.33;3.03;;;;;;;19.33;66.62;101501.78;4986359;28;20879;-87
2022/05/04 21:16:13;;;;;;;11.77;3.67;;;;;;;19.30;67.22;101501.41;4996783;28;20961;-88
2022/05/04 21:18:42;;;;;;;13.17;3.03;;;;;;;19.31;67.14;101515.03;4996283;28;20515;-88
2022/05/04 21:21:10;;;;;;;12.37;3.23;;;;;;;19.26;67.27;101514.88;4996473;28;20443;-88
2022/05/04 21:23:38;;;;;;;12.17;3.53;;;;;;;19.26;68.03;101520.41;5008497;28;20460;-88
2022/05/04 21:26:06;;;;;;;18.13;3.20;;;;;;;19.21;68.17;101511.13;4970624;28;20441;-88
2022/05/04 21:28:34;;;;;;;11.40;3.70;;;;;;;19.20;68.39;101514.97;4992632;28;20810;-87
2022/05/04 21:31:02;;;;;;;6.70;2.90;;;;;;;19.16;68.66;101509.03;4992591;28;20929;-87
2022/05/04 21:33:33;;;;;;;13.57;3.80;;;;;;;19.15;69.33;101518.44;4977136;28;20916;-87
2022/05/04 21:36:04;;;;;;;8.23;3.70;;;;;;;19.11;69.81;101514.41;5027690;28;20981;-88
2022/05/04 21:38:33;;;;;;;9.33;3.73;;;;;;;19.07;70.61;101523.41;5010824;28;20444;-87
2022/05/04 21:41:03;;;;;;;12.90;4.07;;;;;;;19.07;70.61;101527.03;5011960;28;20530;-88
2022/05/04 21:43:31;;;;;;;11.17;3.87;;;;;;;19.02;71.76;101532.44;5011059;28;20491;-87
2022/05/04 21:45:59;;;;;;;10.53;3.80;;;;;;;18.96;72.26;101533.34;5012020;28;20542;-88
2022/05/04 21:48:27;;;;;;;9.83;3.83;;;;;;;18.93;72.68;101536.59;4995387;28;20444;-87
2022/05/04 21:50:58;;;;;;;13.87;4.10;;;;;;;18.88;73.18;101528.09;5007733;28;20448;-88
2022/05/04 21:53:26;;;;;;;10.87;3.20;;;;;;;18.79;74.12;101530.34;4991862;28;20483;-88
2022/05/04 21:55:54;;;;;;;11.33;3.90;;;;;;;18.70;74.65;101531.69;4991804;28;20448;-87
2022/05/04 21:58:21;;;;;;;10.83;4.23;;;;;;;18.61;74.81;101522.00;5011438;28;20440;-88
2022/05/04 22:00:52;;;;;;;14.93;4.00;;;;;;;18.60;75.13;101531.38;5015262;28;20443;-88
2022/05/04 22:03:21;;;;;;;10.37;3.43;;;;;;;18.46;75.88;101529.78;5031334;28;20444;-87
2022/05/04 22:05:49;;;;;;;11.10;3.97;;;;;;;18.39;76.28;101529.00;4999585;28;20440;-87
2022/05/04 22:08:18;;;;;;;10.50;3.43;;;;;;;18.38;76.84;101536.44;4999011;28;20443;-88
2022/05/04 22:16:19;;;;;;;11.80;3.90;;;;;;;18.26;77.91;101536.34;5015158;28;20494;-88
2022/05/04 22:18:47;;;;;;;10.20;3.53;;;;;;;18.23;77.79;101533.19;5015250;28;20531;-87
2022/05/04 22:21:16;;;;;;;11.30;4.80;;;;;;;18.23;78.14;101535.94;5011203;28;20441;-88
2022/05/04 22:23:44;;;;;;;12.80;4.00;;;;;;;18.19;78.27;101531.94;4994547;28;20453;-88
2022/05/04 22:26:16;;;;;;;15.07;3.90;;;;;;;18.18;78.37;101538.53;4990369;28;20480;-88
2022/05/04 22:28:44;;;;;;;15.83;3.87;;;;;;;18.14;78.43;101537.28;5015438;28;20458;-88
2022/05/04 22:31:12;;;;;;;13.90;4.70;;;;;;;18.16;78.50;101547.06;5029868;28;20468;-87
2022/05/04 22:33:42;;;;;;;14.07;4.40;;;;;;;18.13;78.84;101541.13;5014823;28;20476;-88
2022/05/04 22:36:10;;;;;;;17.77;5.13;;;;;;;18.13;78.68;101546.66;5015723;28;20453;-88
2022/05/04 22:38:38;;;;;;;8.77;3.90;;;;;;;18.14;78.35;101548.34;5013113;28;20460;-88
2022/05/04 22:41:06;;;;;;;10.83;4.10;;;;;;;18.11;78.26;101538.56;4994663;28;20465;-88
2022/05/04 22:43:36;;;;;;;17.53;3.80;;;;;;;18.17;78.49;101553.44;4988054;28;20445;-88
2022/05/04 22:46:04;;;;;;;10.53;3.80;;;;;;;18.15;78.34;101545.34;5030870;28;20439;-88
2022/05/04 22:48:33;;;;;;;13.17;4.10;;;;;;;18.13;77.85;101543.88;5013770;28;20444;-88
2022/05/04 22:51:00;;;;;;;11.63;4.10;;;;;;;18.14;78.16;101549.19;4998229;28;20443;-88
2022/05/04 22:53:29;;;;;;;10.30;4.10;;;;;;;18.10;77.93;101542.41;4998546;28;20526;-87
2022/05/04 22:55:58;;;;;;;15.67;4.37;;;;;;;18.08;77.82;101549.25;4998206;28;20819;-88
2022/05/04 22:58:25;;;;;;;11.20;4.50;;;;;;;18.11;78.05;101548.78;5014266;28;20448;-88
2022/05/04 23:00:53;;;;;;;13.37;4.50;;;;;;;18.05;77.52;101538.63;4982565;28;20475;-88
2022/05/04 23:03:22;;;;;;;5.70;3.13;;;;;;;18.07;77.81;101536.50;5014997;28;20959;-88
2022/05/04 23:05:50;;;;;;;14.20;4.10;;;;;;;18.12;77.49;101539.41;4982862;28;20433;-88
2022/05/04 23:08:19;;;;;;;7.07;4.10;;;;;;;18.14;77.23;101548.34;5010897;28;20500;-88
2022/05/04 23:10:47;;;;;;;14.17;4.20;;;;;;;18.13;77.22;101541.13;4978835;28;20511;-88
2022/05/04 23:13:14;;;;;;;10.07;3.43;;;;;;;18.16;77.06;101547.06;5005863;28;20465;-88
2022/05/04 23:16:03;;;;;;;12.53;4.13;;;;;;;18.18;77.32;101539.38;4996471;28;20958;-87
2022/05/04 23:18:33;;;;;;;12.53;3.70;;;;;;;18.16;77.07;101537.91;5030129;28;20444;-87
2022/05/04 23:21:02;;;;;;;7.23;3.50;;;;;;;18.17;76.64;101536.84;4997851;28;20529;-88
2022/05/04 23:23:31;;;;;;;13.43;3.63;;;;;;;18.13;76.56;101530.91;5013523;28;20448;-88
2022/05/04 23:26:00;;;;;;;13.17;4.10;;;;;;;18.13;77.37;101539.19;4993961;28;20523;-88
2022/05/04 23:28:29;;;;;;;6.07;3.03;;;;;;;18.12;77.24;101539.41;4998837;28;20441;-88
2022/05/04 23:30:57;;;;;;;8.43;4.07;;;;;;;18.07;77.32;101536.50;5014417;28;20441;-88
2022/05/04 23:33:27;;;;;;;10.57;3.40;;;;;;;18.10;77.21;101547.94;5013270;28;20950;-88
2022/05/04 23:37:25;;;;;;;10.87;4.20;;;;;;;18.05;77.39;101535.88;5013646;28;20475;-88
2022/05/04 23:38:47;;;;;;;9.53;3.67;;;;;;;18.04;77.46;101539.72;5013933;28;20449;-88
2022/05/04 23:41:14;;;;;;;16.93;4.27;;;;;;;18.01;77.56;101543.75;5013300;28;20444;-87
2022/05/04 23:43:42;;;;;;;11.20;3.93;;;;;;;18.01;77.34;101540.16;4996976;28;20444;-88
2022/05/04 23:46:11;;;;;;;7.13;3.83;;;;;;;17.96;77.59;101540.81;5010059;28;20519;-88
2022/05/04 23:48:39;;;;;;;10.57;3.70;;;;;;;17.94;77.70;101538.28;5011843;28;20536;-88
2022/05/04 23:51:09;;;;;;;9.07;3.60;;;;;;;17.86;77.53;101534.94;5012969;28;20437;-87
2022/05/04 23:53:37;;;;;;;11.17;3.70;;;;;;;17.88;77.15;101547.47;5029347;28;20595;-88
2022/05/04 23:56:05;;;;;;;10.27;3.60;;;;;;;17.88;77.38;101550.25;5013654;28;20441;-88
2022/05/04 23:58:32;;;;;;;10.30;3.70;;;;;;;17.85;77.22;101534.09;5029371;28;20444;-88
